createdAt,value
2018-04-22T16:38:50.462Z,22.10
2018-04-22T16:41:18.141Z,22.20
2018-04-22T16:43:45.750Z,22.20
2018-04-22T16:46:13.416Z,22.10
2018-04-22T16:48:41.061Z,21.90
2018-04-22T16:51:08.724Z,21.80
2018-04-22T16:53:36.338Z,21.70
2018-04-22T16:56:03.959Z,21.80
2018-04-22T16:58:31.700Z,21.70
2018-04-22T17:00:59.427Z,21.70
2018-04-22T17:03:27.104Z,21.70
2018-04-22T17:05:58.871Z,21.70
2018-04-22T17:08:26.502Z,21.60
2018-04-22T17:10:54.198Z,21.70
2018-04-22T17:13:23.651Z,21.60
2018-04-22T17:15:51.357Z,21.60
2018-04-22T17:18:19.003Z,21.50
2018-04-22T17:20:46.644Z,21.50
2018-04-22T17:23:14.249Z,21.20
2018-04-22T17:25:42.181Z,21.20
2018-04-22T17:28:09.850Z,21.10
2018-04-22T17:30:37.495Z,21.10
2018-04-22T17:33:06.942Z,21.00
2018-04-22T17:35:34.721Z,20.90
2018-04-22T17:38:04.867Z,20.80
2018-04-22T17:40:32.595Z,20.60
2018-04-22T17:43:00.256Z,20.50
2018-04-22T17:45:27.920Z,20.40
2018-04-22T17:47:55.609Z,20.30
2018-04-22T17:50:24.095Z,20.10
2018-04-22T17:52:51.801Z,20.00
2018-04-22T17:55:19.665Z,19.90
2018-04-22T17:57:47.359Z,19.70
2018-04-22T18:00:15.063Z,19.70
2018-04-22T18:02:42.704Z,19.50
2018-04-22T18:05:10.452Z,19.40
2018-04-22T18:07:38.968Z,19.30
2018-04-22T18:10:07.390Z,19.30
2018-04-22T18:12:36.019Z,19.10
2018-04-22T18:15:05.050Z,19.00
2018-04-22T18:17:33.212Z,19.00
2018-04-22T18:20:00.942Z,18.90
2018-04-22T18:22:28.574Z,18.80
2018-04-22T18:24:56.324Z,18.80
2018-04-22T18:27:24.697Z,18.60
2018-04-22T18:29:52.371Z,18.60
2018-04-22T18:32:20.107Z,18.50
2018-04-22T18:34:48.554Z,18.40
2018-04-22T18:37:16.994Z,18.40
2018-04-22T18:39:44.668Z,18.30
2018-04-22T18:42:12.311Z,18.30
2018-04-22T18:44:40.769Z,18.10
2018-04-22T18:47:08.976Z,18.10
2018-04-22T18:49:36.635Z,18.10
2018-04-22T18:52:04.270Z,18.00
2018-04-22T18:54:32.253Z,17.90
2018-04-22T18:57:00.584Z,17.90
2018-04-22T18:59:29.915Z,17.70
2018-04-22T19:01:58.052Z,17.70
2018-04-22T19:04:25.697Z,17.70
2018-04-22T19:06:53.375Z,17.60
2018-04-22T19:09:20.989Z,17.50
2018-04-22T19:11:49.456Z,17.40
2018-04-22T19:14:17.869Z,17.30
2018-04-22T19:16:45.736Z,17.20
2018-04-22T19:19:13.429Z,17.20
2018-04-22T19:21:41.111Z,17.00
2018-04-22T19:24:08.810Z,17.00
2018-04-22T19:26:37.212Z,16.90
2018-04-22T19:29:04.914Z,16.90
2018-04-22T19:31:32.610Z,16.90
2018-04-22T19:34:01.091Z,16.80
2018-04-22T19:36:28.789Z,16.80
2018-04-22T19:38:57.209Z,16.70
2018-04-22T19:41:25.309Z,16.60
2018-04-22T19:43:52.993Z,16.60
2018-04-22T19:46:20.695Z,16.60
2018-04-22T19:48:49.088Z,16.50
2018-04-22T19:51:17.489Z,16.40
2018-04-22T19:53:45.145Z,16.40
2018-04-22T19:56:13.748Z,16.40
2018-04-22T19:58:41.477Z,16.40
2018-04-22T20:01:09.952Z,16.30
2018-04-22T20:03:37.583Z,16.20
2018-04-22T20:06:05.210Z,16.20
2018-04-22T20:08:33.205Z,16.20
2018-04-22T20:11:01.955Z,16.20
2018-04-22T20:13:29.648Z,16.10
2018-04-22T20:15:57.296Z,16.00
2018-04-22T20:18:26.043Z,15.80
2018-04-22T20:20:53.644Z,15.70
2018-04-22T20:23:22.085Z,15.70
2018-04-22T20:25:49.742Z,15.70
2018-04-22T20:28:17.690Z,15.60
2018-04-22T20:30:46.117Z,15.50
2018-04-22T20:33:14.048Z,15.50
2018-04-22T20:35:42.781Z,15.50
2018-04-22T20:38:10.416Z,15.50
2018-04-22T20:40:38.070Z,15.40
2018-04-22T20:43:06.572Z,15.30
2018-04-22T20:45:35.047Z,15.30
2018-04-22T20:48:02.737Z,15.30
2018-04-22T20:50:30.354Z,15.20
2018-04-22T20:52:57.996Z,15.20
2018-04-22T20:55:25.651Z,15.10
2018-04-22T20:57:53.275Z,15.10
2018-04-22T21:00:22.510Z,15.30
2018-04-22T21:02:50.162Z,15.30
2018-04-22T21:05:17.816Z,15.20
2018-04-22T21:07:47.161Z,15.30
2018-04-22T21:10:14.820Z,15.20
2018-04-22T21:12:42.490Z,15.20
2018-04-22T21:15:10.489Z,15.20
2018-04-22T21:17:38.111Z,15.20
2018-04-22T21:20:05.755Z,15.20
2018-04-22T21:22:34.194Z,15.20
2018-04-22T21:25:01.839Z,15.30
2018-04-22T21:27:29.552Z,15.30
2018-04-22T21:29:57.146Z,15.20
2018-04-22T21:32:24.806Z,15.30
2018-04-22T21:34:52.459Z,15.40
2018-04-22T21:37:20.166Z,15.90
2018-04-22T21:39:48.374Z,16.20
2018-04-22T21:42:17.050Z,16.60
2018-04-22T21:44:44.676Z,16.60
2018-04-22T21:47:13.091Z,16.80
2018-04-22T21:49:41.097Z,16.80
2018-04-22T21:52:08.761Z,16.90
2018-04-22T21:54:37.248Z,16.80
2018-04-22T21:57:04.899Z,16.80
2018-04-22T21:59:32.505Z,16.80
2018-04-22T22:02:00.437Z,16.70
2018-04-22T22:04:28.094Z,16.70
2018-04-22T22:06:55.849Z,16.60
2018-04-22T22:09:23.518Z,16.50
2018-04-22T22:11:51.194Z,16.50
2018-04-22T22:14:18.839Z,16.50
2018-04-22T22:16:46.483Z,16.40
2018-04-22T22:19:14.883Z,16.30
2018-04-22T22:21:43.258Z,16.30
2018-04-22T22:24:10.930Z,16.30
2018-04-22T22:26:39.674Z,16.10
2018-04-22T22:29:07.982Z,16.00
2018-04-22T22:31:36.237Z,16.10
2018-04-22T22:34:05.511Z,16.30
2018-04-22T22:36:33.131Z,16.20
2018-04-22T22:39:01.090Z,16.30
2018-04-22T22:41:28.724Z,16.20
2018-04-22T22:43:56.421Z,16.10
2018-04-22T22:46:24.157Z,16.20
2018-04-22T22:48:52.862Z,16.10
2018-04-22T22:51:21.343Z,16.10
2018-04-22T22:53:49.071Z,16.20
2018-04-22T22:56:17.482Z,16.20
2018-04-22T22:58:45.144Z,16.10
2018-04-22T23:01:12.806Z,16.20
2018-04-22T23:03:41.218Z,16.10
2018-04-22T23:06:08.846Z,16.10
2018-04-22T23:08:37.295Z,16.10
2018-04-22T23:11:04.910Z,16.10
2018-04-22T23:13:33.333Z,16.00
2018-04-22T23:16:00.951Z,15.90
2018-04-22T23:18:29.382Z,15.90
2018-04-22T23:20:57.605Z,15.90
2018-04-22T23:23:25.340Z,15.80
2018-04-22T23:25:54.012Z,15.90
2018-04-22T23:28:21.629Z,15.90
2018-04-22T23:30:50.925Z,15.90
2018-04-22T23:33:19.386Z,15.80
2018-04-22T23:35:47.015Z,15.80
2018-04-22T23:38:15.145Z,15.90
2018-04-22T23:40:43.559Z,15.80
2018-04-22T23:43:12.837Z,15.80
2018-04-22T23:45:41.858Z,15.70
2018-04-22T23:48:10.261Z,15.80
2018-04-22T23:50:37.894Z,15.70
2018-04-22T23:53:06.304Z,15.60
2018-04-22T23:55:34.684Z,15.60
2018-04-22T23:58:02.646Z,15.60
